Terminal Aerodrome Forecast
Issued by NWS

Home | Current Version | Previous Version | Text Only | Print | Product List | Glossary On
Versions: 1 2 3 4 5 6 7 8 9 10 11 12 13 14 15 16 17 18 19 20 21 22 23 24 25 26 27 28 29 30 31 32 33 34 35
000
FTUS44 KHGX 180925 AAB
TAFIAH
TAF AMD
KIAH 180925Z 1809/1912 VRB04KT 2SM TSRA BR OVC003CB
     FM181000 VRB05KT 2SM TSRA BR BKN005 OVC012CB
      TEMPO 1810/1814 1SM +TSRA BR OVC003CB
     FM181800 12008KT 6SM BR VCTS BKN010 OVC020CB PROB30 1820/1902
      TSRA BKN015CB
     FM190400 VRB03KT 4SM BR OVC007=

USA.gov is the U.S. government's official web portal to all federal, state and local government web resources and services.